sensor_id;sensor_type;location;lat;lon;timestamp;P1;durP1;ratioP1;P2;durP2;ratioP2
33794;SDS011;51430;52.242;21.118;2023-01-19T00:01:54;40.00;;;35.70;;
33794;SDS011;51430;52.242;21.118;2023-01-19T00:04:41;40.20;;;36.00;;
33794;SDS011;51430;52.242;21.118;2023-01-19T00:07:28;39.40;;;35.30;;
33794;SDS011;51430;52.242;21.118;2023-01-19T00:10:15;40.70;;;36.30;;
33794;SDS011;51430;52.242;21.118;2023-01-19T00:13:02;41.30;;;36.80;;
33794;SDS011;51430;52.242;21.118;2023-01-19T00:15:48;39.90;;;35.60;;
33794;SDS011;51430;52.242;21.118;2023-01-19T00:18:35;40.30;;;35.40;;
33794;SDS011;51430;52.242;21.118;2023-01-19T00:21:22;40.60;;;36.30;;
33794;SDS011;51430;52.242;21.118;2023-01-19T00:24:09;41.10;;;36.70;;
33794;SDS011;51430;52.242;21.118;2023-01-19T00:26:56;40.90;;;36.50;;
33794;SDS011;51430;52.242;21.118;2023-01-19T00:29:43;42.10;;;37.40;;
33794;SDS011;51430;52.242;21.118;2023-01-19T00:32:30;42.60;;;37.90;;
33794;SDS011;51430;52.242;21.118;2023-01-19T00:35:16;43.40;;;38.70;;
33794;SDS011;51430;52.242;21.118;2023-01-19T00:38:03;43.40;;;38.60;;
33794;SDS011;51430;52.242;21.118;2023-01-19T00:40:50;42.80;;;38.00;;
33794;SDS011;51430;52.242;21.118;2023-01-19T00:43:37;41.60;;;37.10;;
33794;SDS011;51430;52.242;21.118;2023-01-19T00:46:23;41.70;;;36.70;;
33794;SDS011;51430;52.242;21.118;2023-01-19T00:49:12;42.30;;;37.40;;
33794;SDS011;51430;52.242;21.118;2023-01-19T00:51:58;43.60;;;37.90;;
33794;SDS011;51430;52.242;21.118;2023-01-19T00:54:46;41.60;;;36.80;;
33794;SDS011;51430;52.242;21.118;2023-01-19T00:57:32;41.40;;;36.70;;
33794;SDS011;51430;52.242;21.118;2023-01-19T01:00:20;41.00;;;36.50;;
33794;SDS011;51430;52.242;21.118;2023-01-19T01:03:07;41.80;;;37.20;;
33794;SDS011;51430;52.242;21.118;2023-01-19T01:05:55;42.60;;;38.00;;
33794;SDS011;51430;52.242;21.118;2023-01-19T01:08:42;42.20;;;37.00;;
33794;SDS011;51430;52.242;21.118;2023-01-19T01:11:28;44.00;;;38.60;;
33794;SDS011;51430;52.242;21.118;2023-01-19T01:14:15;45.10;;;39.00;;
33794;SDS011;51430;52.242;21.118;2023-01-19T01:17:03;45.20;;;39.10;;
33794;SDS011;51430;52.242;21.118;2023-01-19T01:19:50;43.30;;;38.70;;
33794;SDS011;51430;52.242;21.118;2023-01-19T01:22:37;43.40;;;38.60;;
33794;SDS011;51430;52.242;21.118;2023-01-19T01:25:26;45.60;;;38.60;;
33794;SDS011;51430;52.242;21.118;2023-01-19T01:28:16;43.30;;;38.60;;
33794;SDS011;51430;52.242;21.118;2023-01-19T01:31:03;44.10;;;39.10;;
33794;SDS011;51430;52.242;21.118;2023-01-19T01:33:50;42.40;;;37.70;;
33794;SDS011;51430;52.242;21.118;2023-01-19T01:36:37;46.70;;;39.50;;
33794;SDS011;51430;52.242;21.118;2023-01-19T01:39:23;43.20;;;38.10;;
33794;SDS011;51430;52.242;21.118;2023-01-19T01:42:17;46.40;;;38.70;;
33794;SDS011;51430;52.242;21.118;2023-01-19T01:45:51;46.30;;;38.60;;
33794;SDS011;51430;52.242;21.118;2023-01-19T01:48:27;43.60;;;37.60;;
33794;SDS011;51430;52.242;21.118;2023-01-19T01:51:25;43.50;;;37.20;;
33794;SDS011;51430;52.242;21.118;2023-01-19T01:54:32;45.30;;;38.60;;
33794;SDS011;51430;52.242;21.118;2023-01-19T01:57:18;47.00;;;39.50;;
33794;SDS011;51430;52.242;21.118;2023-01-19T02:00:05;46.10;;;38.90;;
33794;SDS011;51430;52.242;21.118;2023-01-19T02:02:52;48.00;;;39.90;;
33794;SDS011;51430;52.242;21.118;2023-01-19T02:05:40;46.30;;;39.30;;
33794;SDS011;51430;52.242;21.118;2023-01-19T02:08:36;46.50;;;39.30;;
33794;SDS011;51430;52.242;21.118;2023-01-19T02:11:48;45.50;;;39.10;;
33794;SDS011;51430;52.242;21.118;2023-01-19T02:14:54;47.00;;;38.60;;
33794;SDS011;51430;52.242;21.118;2023-01-19T02:17:40;48.80;;;40.70;;
33794;SDS011;51430;52.242;21.118;2023-01-19T02:20:27;50.40;;;41.80;;
33794;SDS011;51430;52.242;21.118;2023-01-19T02:23:19;50.60;;;42.80;;
33794;SDS011;51430;52.242;21.118;2023-01-19T02:26:36;48.70;;;40.70;;
33794;SDS011;51430;52.242;21.118;2023-01-19T02:29:42;47.40;;;39.90;;
33794;SDS011;51430;52.242;21.118;2023-01-19T02:32:28;48.30;;;40.70;;
33794;SDS011;51430;52.242;21.118;2023-01-19T02:35:15;49.60;;;40.80;;
33794;SDS011;51430;52.242;21.118;2023-01-19T02:38:02;50.00;;;41.50;;
33794;SDS011;51430;52.242;21.118;2023-01-19T02:40:49;51.00;;;41.20;;
33794;SDS011;51430;52.242;21.118;2023-01-19T02:43:37;52.00;;;42.10;;
33794;SDS011;51430;52.242;21.118;2023-01-19T02:46:24;48.80;;;40.80;;
33794;SDS011;51430;52.242;21.118;2023-01-19T02:49:11;47.90;;;40.30;;
33794;SDS011;51430;52.242;21.118;2023-01-19T02:51:58;49.40;;;40.90;;
33794;SDS011;51430;52.242;21.118;2023-01-19T02:57:56;51.60;;;42.10;;
33794;SDS011;51430;52.242;21.118;2023-01-19T03:04:09;50.30;;;41.00;;
33794;SDS011;51430;52.242;21.118;2023-01-19T03:10:03;48.30;;;40.20;;
33794;SDS011;51430;52.242;21.118;2023-01-19T03:15:51;51.10;;;40.80;;
33794;SDS011;51430;52.242;21.118;2023-01-19T03:18:45;48.10;;;39.80;;
33794;SDS011;51430;52.242;21.118;2023-01-19T03:21:37;48.20;;;40.20;;
33794;SDS011;51430;52.242;21.118;2023-01-19T03:24:28;49.80;;;40.20;;
33794;SDS011;51430;52.242;21.118;2023-01-19T03:27:23;47.50;;;39.70;;
33794;SDS011;51430;52.242;21.118;2023-01-19T03:30:13;49.40;;;40.40;;
33794;SDS011;51430;52.242;21.118;2023-01-19T03:33:08;50.30;;;40.70;;
33794;SDS011;51430;52.242;21.118;2023-01-19T03:36:07;48.00;;;40.20;;
33794;SDS011;51430;52.242;21.118;2023-01-19T03:39:00;47.50;;;40.20;;
33794;SDS011;51430;52.242;21.118;2023-01-19T03:41:54;50.00;;;40.80;;
33794;SDS011;51430;52.242;21.118;2023-01-19T03:44:44;50.50;;;41.30;;
33794;SDS011;51430;52.242;21.118;2023-01-19T03:47:35;50.80;;;41.00;;
33794;SDS011;51430;52.242;21.118;2023-01-19T03:50:26;51.40;;;41.20;;
33794;SDS011;51430;52.242;21.118;2023-01-19T03:53:15;51.20;;;41.60;;
33794;SDS011;51430;52.242;21.118;2023-01-19T03:56:38;45.80;;;33.30;;
33794;SDS011;51430;52.242;21.118;2023-01-19T03:59:23;49.30;;;40.10;;
33794;SDS011;51430;52.242;21.118;2023-01-19T04:02:09;51.00;;;40.80;;
33794;SDS011;51430;52.242;21.118;2023-01-19T04:04:54;51.90;;;41.50;;
33794;SDS011;51430;52.242;21.118;2023-01-19T04:07:39;52.30;;;42.00;;
33794;SDS011;51430;52.242;21.118;2023-01-19T04:10:24;54.60;;;43.30;;
33794;SDS011;51430;52.242;21.118;2023-01-19T04:13:10;53.80;;;41.20;;
33794;SDS011;51430;52.242;21.118;2023-01-19T04:15:59;51.00;;;41.60;;
33794;SDS011;51430;52.242;21.118;2023-01-19T04:18:45;52.80;;;43.10;;
33794;SDS011;51430;52.242;21.118;2023-01-19T04:21:31;49.70;;;41.00;;
33794;SDS011;51430;52.242;21.118;2023-01-19T04:24:16;51.60;;;41.30;;
33794;SDS011;51430;52.242;21.118;2023-01-19T04:27:02;50.30;;;41.30;;
33794;SDS011;51430;52.242;21.118;2023-01-19T04:29:47;49.60;;;42.90;;
33794;SDS011;51430;52.242;21.118;2023-01-19T04:32:32;52.70;;;42.50;;
33794;SDS011;51430;52.242;21.118;2023-01-19T04:35:18;53.30;;;43.30;;
33794;SDS011;51430;52.242;21.118;2023-01-19T04:38:03;51.20;;;42.70;;
33794;SDS011;51430;52.242;21.118;2023-01-19T04:40:49;53.70;;;43.40;;
33794;SDS011;51430;52.242;21.118;2023-01-19T04:43:36;52.00;;;41.90;;
33794;SDS011;51430;52.242;21.118;2023-01-19T04:46:21;49.20;;;41.40;;
33794;SDS011;51430;52.242;21.118;2023-01-19T04:49:07;49.00;;;41.50;;
33794;SDS011;51430;52.242;21.118;2023-01-19T04:51:53;53.20;;;43.60;;
33794;SDS011;51430;52.242;21.118;2023-01-19T04:54:38;51.70;;;43.30;;
33794;SDS011;51430;52.242;21.118;2023-01-19T04:57:24;49.70;;;41.90;;
33794;SDS011;51430;52.242;21.118;2023-01-19T05:00:09;44.60;;;38.20;;
33794;SDS011;51430;52.242;21.118;2023-01-19T05:02:55;45.00;;;39.10;;
33794;SDS011;51430;52.242;21.118;2023-01-19T05:05:40;41.80;;;37.20;;
33794;SDS011;51430;52.242;21.118;2023-01-19T05:08:25;43.20;;;37.70;;
33794;SDS011;51430;52.242;21.118;2023-01-19T05:11:12;43.10;;;36.50;;
33794;SDS011;51430;52.242;21.118;2023-01-19T05:13:57;41.40;;;36.30;;
33794;SDS011;51430;52.242;21.118;2023-01-19T05:16:43;40.50;;;35.20;;
33794;SDS011;51430;52.242;21.118;2023-01-19T05:19:28;38.80;;;34.50;;
33794;SDS011;51430;52.242;21.118;2023-01-19T05:22:14;40.80;;;35.70;;
33794;SDS011;51430;52.242;21.118;2023-01-19T05:24:59;38.30;;;33.60;;
33794;SDS011;51430;52.242;21.118;2023-01-19T05:27:45;39.90;;;33.90;;
33794;SDS011;51430;52.242;21.118;2023-01-19T05:30:30;38.70;;;34.20;;
33794;SDS011;51430;52.242;21.118;2023-01-19T05:33:17;38.50;;;34.00;;
33794;SDS011;51430;52.242;21.118;2023-01-19T05:36:02;37.80;;;33.70;;
33794;SDS011;51430;52.242;21.118;2023-01-19T05:38:48;38.80;;;34.10;;
33794;SDS011;51430;52.242;21.118;2023-01-19T05:41:33;39.10;;;34.30;;
33794;SDS011;51430;52.242;21.118;2023-01-19T05:44:20;40.20;;;34.50;;
33794;SDS011;51430;52.242;21.118;2023-01-19T05:47:06;38.10;;;33.80;;
33794;SDS011;51430;52.242;21.118;2023-01-19T05:49:51;39.20;;;33.70;;
33794;SDS011;51430;52.242;21.118;2023-01-19T05:52:36;38.30;;;33.40;;
33794;SDS011;51430;52.242;21.118;2023-01-19T05:55:22;39.00;;;34.20;;
33794;SDS011;51430;52.242;21.118;2023-01-19T05:58:08;36.70;;;32.40;;
33794;SDS011;51430;52.242;21.118;2023-01-19T06:00:53;37.00;;;32.70;;
33794;SDS011;51430;52.242;21.118;2023-01-19T06:03:38;39.60;;;34.20;;
33794;SDS011;51430;52.242;21.118;2023-01-19T06:06:24;36.20;;;31.70;;
33794;SDS011;51430;52.242;21.118;2023-01-19T06:09:09;36.80;;;32.40;;
33794;SDS011;51430;52.242;21.118;2023-01-19T06:11:55;36.80;;;32.90;;
33794;SDS011;51430;52.242;21.118;2023-01-19T06:14:41;37.60;;;33.50;;
33794;SDS011;51430;52.242;21.118;2023-01-19T06:17:26;34.60;;;30.80;;
33794;SDS011;51430;52.242;21.118;2023-01-19T06:20:12;35.70;;;31.80;;
33794;SDS011;51430;52.242;21.118;2023-01-19T06:23:00;36.40;;;32.00;;
33794;SDS011;51430;52.242;21.118;2023-01-19T06:25:47;35.00;;;30.40;;
33794;SDS011;51430;52.242;21.118;2023-01-19T06:28:32;32.30;;;28.90;;
33794;SDS011;51430;52.242;21.118;2023-01-19T06:31:18;35.20;;;31.30;;
33794;SDS011;51430;52.242;21.118;2023-01-19T06:34:03;32.40;;;29.00;;
33794;SDS011;51430;52.242;21.118;2023-01-19T06:36:48;33.00;;;29.50;;
33794;SDS011;51430;52.242;21.118;2023-01-19T06:39:34;32.10;;;28.60;;
33794;SDS011;51430;52.242;21.118;2023-01-19T06:42:21;32.50;;;29.00;;
33794;SDS011;51430;52.242;21.118;2023-01-19T06:45:06;30.80;;;27.50;;
33794;SDS011;51430;52.242;21.118;2023-01-19T06:47:54;34.30;;;30.60;;
33794;SDS011;51430;52.242;21.118;2023-01-19T06:50:39;33.80;;;30.20;;
33794;SDS011;51430;52.242;21.118;2023-01-19T06:53:24;33.60;;;29.90;;
33794;SDS011;51430;52.242;21.118;2023-01-19T06:56:12;33.90;;;30.20;;
33794;SDS011;51430;52.242;21.118;2023-01-19T06:58:57;33.40;;;29.80;;
33794;SDS011;51430;52.242;21.118;2023-01-19T07:01:43;35.00;;;31.20;;
33794;SDS011;51430;52.242;21.118;2023-01-19T07:04:28;30.50;;;27.30;;
33794;SDS011;51430;52.242;21.118;2023-01-19T07:07:15;30.50;;;27.30;;
33794;SDS011;51430;52.242;21.118;2023-01-19T07:10:00;31.80;;;28.40;;
33794;SDS011;51430;52.242;21.118;2023-01-19T07:12:46;31.80;;;28.10;;
33794;SDS011;51430;52.242;21.118;2023-01-19T07:15:31;32.90;;;29.40;;
33794;SDS011;51430;52.242;21.118;2023-01-19T07:18:16;33.30;;;29.70;;
33794;SDS011;51430;52.242;21.118;2023-01-19T07:21:02;35.10;;;31.10;;
33794;SDS011;51430;52.242;21.118;2023-01-19T07:23:49;32.30;;;28.50;;
33794;SDS011;51430;52.242;21.118;2023-01-19T07:26:37;29.60;;;26.50;;
33794;SDS011;51430;52.242;21.118;2023-01-19T07:29:22;29.60;;;26.40;;
33794;SDS011;51430;52.242;21.118;2023-01-19T07:32:08;30.30;;;27.00;;
33794;SDS011;51430;52.242;21.118;2023-01-19T07:34:53;32.40;;;28.70;;
33794;SDS011;51430;52.242;21.118;2023-01-19T07:37:38;33.70;;;29.40;;
33794;SDS011;51430;52.242;21.118;2023-01-19T07:40:24;30.90;;;27.10;;
33794;SDS011;51430;52.242;21.118;2023-01-19T07:43:09;30.60;;;27.30;;
33794;SDS011;51430;52.242;21.118;2023-01-19T07:45:55;29.90;;;26.70;;
33794;SDS011;51430;52.242;21.118;2023-01-19T07:48:42;29.80;;;26.60;;
33794;SDS011;51430;52.242;21.118;2023-01-19T07:51:28;31.20;;;27.00;;
33794;SDS011;51430;52.242;21.118;2023-01-19T07:54:13;29.70;;;26.60;;
33794;SDS011;51430;52.242;21.118;2023-01-19T07:56:58;27.10;;;24.30;;
33794;SDS011;51430;52.242;21.118;2023-01-19T07:59:46;28.20;;;25.20;;
33794;SDS011;51430;52.242;21.118;2023-01-19T08:02:31;30.00;;;26.80;;
33794;SDS011;51430;52.242;21.118;2023-01-19T08:05:18;29.30;;;26.10;;
33794;SDS011;51430;52.242;21.118;2023-01-19T08:08:05;29.50;;;26.50;;
33794;SDS011;51430;52.242;21.118;2023-01-19T08:10:50;29.70;;;26.50;;
33794;SDS011;51430;52.242;21.118;2023-01-19T08:13:36;29.30;;;26.20;;
33794;SDS011;51430;52.242;21.118;2023-01-19T08:16:21;30.20;;;26.80;;
33794;SDS011;51430;52.242;21.118;2023-01-19T08:19:06;29.80;;;26.70;;
33794;SDS011;51430;52.242;21.118;2023-01-19T08:21:52;30.30;;;26.90;;
33794;SDS011;51430;52.242;21.118;2023-01-19T08:24:38;30.00;;;26.80;;
33794;SDS011;51430;52.242;21.118;2023-01-19T08:27:26;30.70;;;27.30;;
33794;SDS011;51430;52.242;21.118;2023-01-19T08:30:11;32.00;;;28.00;;
33794;SDS011;51430;52.242;21.118;2023-01-19T08:32:57;31.50;;;28.10;;
33794;SDS011;51430;52.242;21.118;2023-01-19T08:35:52;31.70;;;28.30;;
33794;SDS011;51430;52.242;21.118;2023-01-19T08:38:38;33.10;;;29.50;;
33794;SDS011;51430;52.242;21.118;2023-01-19T08:41:27;33.60;;;29.90;;
33794;SDS011;51430;52.242;21.118;2023-01-19T08:44:12;34.20;;;30.50;;
33794;SDS011;51430;52.242;21.118;2023-01-19T08:46:58;35.00;;;31.30;;
33794;SDS011;51430;52.242;21.118;2023-01-19T08:49:44;35.50;;;31.70;;
33794;SDS011;51430;52.242;21.118;2023-01-19T08:52:29;34.90;;;31.10;;
33794;SDS011;51430;52.242;21.118;2023-01-19T08:55:14;34.20;;;30.00;;
33794;SDS011;51430;52.242;21.118;2023-01-19T08:57:59;32.80;;;29.30;;
33794;SDS011;51430;52.242;21.118;2023-01-19T09:00:45;34.40;;;30.60;;
33794;SDS011;51430;52.242;21.118;2023-01-19T09:03:31;33.50;;;29.80;;
33794;SDS011;51430;52.242;21.118;2023-01-19T09:06:16;32.50;;;29.00;;
33794;SDS011;51430;52.242;21.118;2023-01-19T09:09:03;31.90;;;28.50;;
33794;SDS011;51430;52.242;21.118;2023-01-19T09:11:48;31.70;;;28.30;;
33794;SDS011;51430;52.242;21.118;2023-01-19T09:14:34;30.00;;;26.80;;
33794;SDS011;51430;52.242;21.118;2023-01-19T09:17:19;30.40;;;27.00;;
33794;SDS011;51430;52.242;21.118;2023-01-19T09:20:05;30.00;;;26.90;;
33794;SDS011;51430;52.242;21.118;2023-01-19T09:22:50;31.10;;;27.70;;
33794;SDS011;51430;52.242;21.118;2023-01-19T09:25:36;31.10;;;27.70;;
33794;SDS011;51430;52.242;21.118;2023-01-19T09:28:22;28.90;;;26.00;;
33794;SDS011;51430;52.242;21.118;2023-01-19T09:31:08;29.60;;;26.50;;
33794;SDS011;51430;52.242;21.118;2023-01-19T09:33:53;29.60;;;26.50;;
33794;SDS011;51430;52.242;21.118;2023-01-19T09:36:39;29.40;;;26.30;;
33794;SDS011;51430;52.242;21.118;2023-01-19T09:39:24;28.90;;;25.80;;
33794;SDS011;51430;52.242;21.118;2023-01-19T09:42:28;30.00;;;26.90;;
33794;SDS011;51430;52.242;21.118;2023-01-19T09:48:47;28.50;;;25.50;;
33794;SDS011;51430;52.242;21.118;2023-01-19T09:51:37;30.00;;;26.70;;
33794;SDS011;51430;52.242;21.118;2023-01-19T09:54:28;29.40;;;26.30;;
33794;SDS011;51430;52.242;21.118;2023-01-19T09:57:21;30.80;;;27.40;;
33794;SDS011;51430;52.242;21.118;2023-01-19T10:00:14;30.70;;;27.50;;
33794;SDS011;51430;52.242;21.118;2023-01-19T10:03:09;30.40;;;27.10;;
33794;SDS011;51430;52.242;21.118;2023-01-19T10:06:00;31.90;;;28.50;;
33794;SDS011;51430;52.242;21.118;2023-01-19T10:11:42;31.70;;;28.30;;
33794;SDS011;51430;52.242;21.118;2023-01-19T10:14:43;31.00;;;27.70;;
33794;SDS011;51430;52.242;21.118;2023-01-19T10:17:36;30.60;;;27.10;;
33794;SDS011;51430;52.242;21.118;2023-01-19T10:20:36;31.30;;;27.90;;
33794;SDS011;51430;52.242;21.118;2023-01-19T10:26:41;30.80;;;27.50;;
33794;SDS011;51430;52.242;21.118;2023-01-19T10:32:21;31.50;;;28.10;;
33794;SDS011;51430;52.242;21.118;2023-01-19T10:35:12;32.40;;;27.90;;
33794;SDS011;51430;52.242;21.118;2023-01-19T10:38:05;31.10;;;27.70;;
33794;SDS011;51430;52.242;21.118;2023-01-19T10:40:59;35.80;;;29.30;;
33794;SDS011;51430;52.242;21.118;2023-01-19T10:43:57;31.20;;;27.80;;
33794;SDS011;51430;52.242;21.118;2023-01-19T10:46:45;30.20;;;26.90;;
33794;SDS011;51430;52.242;21.118;2023-01-19T10:49:39;32.10;;;28.00;;
33794;SDS011;51430;52.242;21.118;2023-01-19T10:52:28;30.80;;;27.50;;
33794;SDS011;51430;52.242;21.118;2023-01-19T10:55:22;32.00;;;28.00;;
33794;SDS011;51430;52.242;21.118;2023-01-19T10:58:28;30.70;;;27.30;;
33794;SDS011;51430;52.242;21.118;2023-01-19T11:01:22;33.60;;;28.80;;
33794;SDS011;51430;52.242;21.118;2023-01-19T11:04:26;32.40;;;28.50;;
33794;SDS011;51430;52.242;21.118;2023-01-19T11:07:22;35.40;;;29.40;;
33794;SDS011;51430;52.242;21.118;2023-01-19T11:13:11;33.80;;;29.90;;
33794;SDS011;51430;52.242;21.118;2023-01-19T11:16:24;33.30;;;29.60;;
33794;SDS011;51430;52.242;21.118;2023-01-19T11:19:17;32.70;;;27.70;;
33794;SDS011;51430;52.242;21.118;2023-01-19T11:22:10;31.90;;;27.90;;
33794;SDS011;51430;52.242;21.118;2023-01-19T11:25:05;32.00;;;28.50;;
33794;SDS011;51430;52.242;21.118;2023-01-19T11:27:52;31.50;;;28.00;;
33794;SDS011;51430;52.242;21.118;2023-01-19T11:30:37;32.80;;;29.30;;
33794;SDS011;51430;52.242;21.118;2023-01-19T11:36:31;32.60;;;28.90;;
33794;SDS011;51430;52.242;21.118;2023-01-19T11:39:23;33.60;;;29.60;;
33794;SDS011;51430;52.242;21.118;2023-01-19T11:42:11;32.90;;;28.50;;
33794;SDS011;51430;52.242;21.118;2023-01-19T11:47:55;35.20;;;29.90;;
33794;SDS011;51430;52.242;21.118;2023-01-19T11:50:41;33.50;;;29.20;;
33794;SDS011;51430;52.242;21.118;2023-01-19T11:53:32;32.20;;;28.70;;
33794;SDS011;51430;52.242;21.118;2023-01-19T11:56:19;34.10;;;29.10;;
33794;SDS011;51430;52.242;21.118;2023-01-19T11:59:10;34.30;;;30.40;;
33794;SDS011;51430;52.242;21.118;2023-01-19T12:01:58;33.60;;;29.00;;
33794;SDS011;51430;52.242;21.118;2023-01-19T12:04:47;34.10;;;29.50;;
33794;SDS011;51430;52.242;21.118;2023-01-19T12:07:34;33.00;;;28.50;;
33794;SDS011;51430;52.242;21.118;2023-01-19T12:10:30;31.80;;;28.30;;
33794;SDS011;51430;52.242;21.118;2023-01-19T12:13:21;31.30;;;27.90;;
33794;SDS011;51430;52.242;21.118;2023-01-19T12:16:29;33.70;;;29.40;;
33794;SDS011;51430;52.242;21.118;2023-01-19T12:19:15;32.20;;;28.70;;
33794;SDS011;51430;52.242;21.118;2023-01-19T12:22:05;31.50;;;28.00;;
33794;SDS011;51430;52.242;21.118;2023-01-19T12:25:05;33.70;;;29.10;;
33794;SDS011;51430;52.242;21.118;2023-01-19T12:28:00;31.30;;;27.40;;
33794;SDS011;51430;52.242;21.118;2023-01-19T12:30:47;30.60;;;27.40;;
33794;SDS011;51430;52.242;21.118;2023-01-19T12:33:35;30.10;;;26.80;;
33794;SDS011;51430;52.242;21.118;2023-01-19T12:36:40;28.50;;;25.50;;
33794;SDS011;51430;52.242;21.118;2023-01-19T12:39:44;28.10;;;25.00;;
33794;SDS011;51430;52.242;21.118;2023-01-19T12:42:43;28.80;;;25.40;;
33794;SDS011;51430;52.242;21.118;2023-01-19T12:45:49;29.00;;;25.90;;
33794;SDS011;51430;52.242;21.118;2023-01-19T12:48:34;29.00;;;25.90;;
33794;SDS011;51430;52.242;21.118;2023-01-19T12:51:23;29.10;;;26.10;;
33794;SDS011;51430;52.242;21.118;2023-01-19T12:54:30;29.00;;;25.80;;
33794;SDS011;51430;52.242;21.118;2023-01-19T13:06:01;30.10;;;26.90;;
33794;SDS011;51430;52.242;21.118;2023-01-19T13:12:08;31.90;;;28.50;;
33794;SDS011;51430;52.242;21.118;2023-01-19T13:18:25;31.20;;;27.90;;
33794;SDS011;51430;52.242;21.118;2023-01-19T13:21:59;30.10;;;22.80;;
33794;SDS011;51430;52.242;21.118;2023-01-19T13:25:38;31.40;;;27.50;;
33794;SDS011;51430;52.242;21.118;2023-01-19T13:28:42;32.60;;;28.70;;
33794;SDS011;51430;52.242;21.118;2023-01-19T13:31:36;32.40;;;28.90;;
33794;SDS011;51430;52.242;21.118;2023-01-19T13:34:25;32.50;;;29.00;;
33794;SDS011;51430;52.242;21.118;2023-01-19T13:37:16;32.30;;;28.80;;
33794;SDS011;51430;52.242;21.118;2023-01-19T13:44:28;31.80;;;28.20;;
33794;SDS011;51430;52.242;21.118;2023-01-19T13:47:22;30.70;;;27.50;;
33794;SDS011;51430;52.242;21.118;2023-01-19T13:50:23;30.30;;;27.00;;
33794;SDS011;51430;52.242;21.118;2023-01-19T13:53:16;29.60;;;26.50;;
33794;SDS011;51430;52.242;21.118;2023-01-19T13:56:25;30.80;;;27.50;;
33794;SDS011;51430;52.242;21.118;2023-01-19T13:59:12;30.40;;;27.10;;
33794;SDS011;51430;52.242;21.118;2023-01-19T14:01:59;32.10;;;28.20;;
33794;SDS011;51430;52.242;21.118;2023-01-19T14:04:56;32.20;;;28.70;;
33794;SDS011;51430;52.242;21.118;2023-01-19T14:07:42;32.30;;;28.00;;
33794;SDS011;51430;52.242;21.118;2023-01-19T14:10:27;32.90;;;29.20;;
33794;SDS011;51430;52.242;21.118;2023-01-19T14:17:29;33.80;;;29.10;;
33794;SDS011;51430;52.242;21.118;2023-01-19T14:20:26;32.80;;;28.30;;
33794;SDS011;51430;52.242;21.118;2023-01-19T14:37:48;36.10;;;31.60;;
33794;SDS011;51430;52.242;21.118;2023-01-19T14:40:35;36.30;;;31.00;;
33794;SDS011;51430;52.242;21.118;2023-01-19T14:43:22;34.40;;;29.80;;
33794;SDS011;51430;52.242;21.118;2023-01-19T14:46:18;35.40;;;30.70;;
33794;SDS011;51430;52.242;21.118;2023-01-19T14:49:05;37.90;;;33.20;;
33794;SDS011;51430;52.242;21.118;2023-01-19T14:51:50;38.10;;;33.10;;
33794;SDS011;51430;52.242;21.118;2023-01-19T14:54:38;37.60;;;31.70;;
33794;SDS011;51430;52.242;21.118;2023-01-19T14:57:25;38.90;;;32.60;;
33794;SDS011;51430;52.242;21.118;2023-01-19T15:00:11;36.50;;;30.80;;
33794;SDS011;51430;52.242;21.118;2023-01-19T15:03:02;34.60;;;29.70;;
33794;SDS011;51430;52.242;21.118;2023-01-19T15:05:50;34.30;;;29.30;;
33794;SDS011;51430;52.242;21.118;2023-01-19T15:08:37;32.60;;;27.80;;
33794;SDS011;51430;52.242;21.118;2023-01-19T15:11:24;30.80;;;27.10;;
33794;SDS011;51430;52.242;21.118;2023-01-19T15:14:14;27.10;;;24.10;;
33794;SDS011;51430;52.242;21.118;2023-01-19T15:17:03;25.30;;;22.60;;
33794;SDS011;51430;52.242;21.118;2023-01-19T15:19:49;26.00;;;23.30;;
33794;SDS011;51430;52.242;21.118;2023-01-19T15:22:34;24.90;;;22.20;;
33794;SDS011;51430;52.242;21.118;2023-01-19T15:25:20;25.00;;;22.40;;
33794;SDS011;51430;52.242;21.118;2023-01-19T15:28:10;24.90;;;22.30;;
33794;SDS011;51430;52.242;21.118;2023-01-19T15:30:57;25.40;;;22.80;;
33794;SDS011;51430;52.242;21.118;2023-01-19T15:33:43;24.50;;;22.00;;
33794;SDS011;51430;52.242;21.118;2023-01-19T15:36:29;26.20;;;23.40;;
33794;SDS011;51430;52.242;21.118;2023-01-19T15:39:16;25.50;;;22.70;;
33794;SDS011;51430;52.242;21.118;2023-01-19T15:42:01;25.60;;;22.70;;
33794;SDS011;51430;52.242;21.118;2023-01-19T15:44:48;27.20;;;23.10;;
33794;SDS011;51430;52.242;21.118;2023-01-19T15:47:33;26.10;;;23.40;;
33794;SDS011;51430;52.242;21.118;2023-01-19T15:50:18;27.10;;;23.40;;
33794;SDS011;51430;52.242;21.118;2023-01-19T15:53:04;25.60;;;22.80;;
33794;SDS011;51430;52.242;21.118;2023-01-19T15:55:51;26.50;;;23.50;;
33794;SDS011;51430;52.242;21.118;2023-01-19T15:58:41;25.00;;;22.30;;
33794;SDS011;51430;52.242;21.118;2023-01-19T16:01:27;25.80;;;22.80;;
33794;SDS011;51430;52.242;21.118;2023-01-19T16:04:17;24.10;;;21.50;;
33794;SDS011;51430;52.242;21.118;2023-01-19T16:07:02;24.60;;;21.70;;
33794;SDS011;51430;52.242;21.118;2023-01-19T16:09:48;25.60;;;22.90;;
33794;SDS011;51430;52.242;21.118;2023-01-19T16:12:34;26.40;;;23.30;;
33794;SDS011;51430;52.242;21.118;2023-01-19T16:15:20;26.30;;;23.40;;
33794;SDS011;51430;52.242;21.118;2023-01-19T16:18:08;25.90;;;23.10;;
33794;SDS011;51430;52.242;21.118;2023-01-19T16:20:53;24.90;;;22.20;;
33794;SDS011;51430;52.242;21.118;2023-01-19T16:23:38;24.10;;;21.50;;
33794;SDS011;51430;52.242;21.118;2023-01-19T16:26:33;24.10;;;21.20;;
33794;SDS011;51430;52.242;21.118;2023-01-19T16:29:21;22.90;;;20.50;;
33794;SDS011;51430;52.242;21.118;2023-01-19T16:32:06;23.80;;;21.20;;
33794;SDS011;51430;52.242;21.118;2023-01-19T16:34:51;24.40;;;21.70;;
33794;SDS011;51430;52.242;21.118;2023-01-19T16:37:36;24.50;;;21.20;;
33794;SDS011;51430;52.242;21.118;2023-01-19T16:40:21;24.20;;;21.60;;
33794;SDS011;51430;52.242;21.118;2023-01-19T16:43:13;24.10;;;21.60;;
33794;SDS011;51430;52.242;21.118;2023-01-19T16:45:59;23.80;;;21.30;;
33794;SDS011;51430;52.242;21.118;2023-01-19T16:48:48;23.90;;;21.40;;
33794;SDS011;51430;52.242;21.118;2023-01-19T16:51:44;24.40;;;21.70;;
33794;SDS011;51430;52.242;21.118;2023-01-19T16:54:30;23.90;;;21.40;;
33794;SDS011;51430;52.242;21.118;2023-01-19T16:57:16;25.50;;;22.70;;
33794;SDS011;51430;52.242;21.118;2023-01-19T17:00:02;26.00;;;22.40;;
33794;SDS011;51430;52.242;21.118;2023-01-19T17:02:47;26.20;;;23.20;;
33794;SDS011;51430;52.242;21.118;2023-01-19T17:05:33;27.60;;;23.50;;
33794;SDS011;51430;52.242;21.118;2023-01-19T17:08:19;26.20;;;23.00;;
33794;SDS011;51430;52.242;21.118;2023-01-19T17:11:09;28.30;;;23.80;;
33794;SDS011;51430;52.242;21.118;2023-01-19T17:14:06;28.00;;;24.70;;
33794;SDS011;51430;52.242;21.118;2023-01-19T17:16:54;30.80;;;27.50;;
33794;SDS011;51430;52.242;21.118;2023-01-19T17:19:39;29.70;;;25.50;;
33794;SDS011;51430;52.242;21.118;2023-01-19T17:22:26;28.20;;;24.70;;
33794;SDS011;51430;52.242;21.118;2023-01-19T17:25:11;29.60;;;25.50;;
33794;SDS011;51430;52.242;21.118;2023-01-19T17:27:57;31.60;;;27.30;;